sensor_id;sensor_type;location;lat;lon;timestamp;P1;durP1;ratioP1;P2;durP2;ratioP2
43700;SDS011;58809;47.984;7.964;2023-02-01T00:02:56;7.90;;;5.15;;
43700;SDS011;58809;47.984;7.964;2023-02-01T00:05:58;8.27;;;5.45;;
43700;SDS011;58809;47.984;7.964;2023-02-01T00:09:00;6.60;;;5.22;;
43700;SDS011;58809;47.984;7.964;2023-02-01T00:12:02;6.47;;;4.80;;
43700;SDS011;58809;47.984;7.964;2023-02-01T00:15:05;7.55;;;5.30;;
43700;SDS011;58809;47.984;7.964;2023-02-01T00:18:06;6.93;;;4.95;;
43700;SDS011;58809;47.984;7.964;2023-02-01T00:21:10;6.78;;;5.30;;
43700;SDS011;58809;47.984;7.964;2023-02-01T00:24:12;6.50;;;5.18;;
43700;SDS011;58809;47.984;7.964;2023-02-01T00:27:14;9.45;;;5.57;;
43700;SDS011;58809;47.984;7.964;2023-02-01T00:30:18;8.55;;;5.60;;
43700;SDS011;58809;47.984;7.964;2023-02-01T00:33:20;7.50;;;4.95;;
43700;SDS011;58809;47.984;7.964;2023-02-01T00:36:22;6.97;;;5.30;;
43700;SDS011;58809;47.984;7.964;2023-02-01T00:39:24;8.50;;;5.28;;
43700;SDS011;58809;47.984;7.964;2023-02-01T00:42:25;6.72;;;5.38;;
43700;SDS011;58809;47.984;7.964;2023-02-01T00:45:27;6.07;;;5.13;;
43700;SDS011;58809;47.984;7.964;2023-02-01T00:48:28;6.32;;;4.60;;
43700;SDS011;58809;47.984;7.964;2023-02-01T00:51:30;7.55;;;5.30;;
43700;SDS011;58809;47.984;7.964;2023-02-01T00:54:32;8.38;;;5.57;;
43700;SDS011;58809;47.984;7.964;2023-02-01T00:57:34;6.50;;;5.50;;
43700;SDS011;58809;47.984;7.964;2023-02-01T01:00:35;5.97;;;4.35;;
43700;SDS011;58809;47.984;7.964;2023-02-01T01:03:39;6.72;;;4.47;;
43700;SDS011;58809;47.984;7.964;2023-02-01T01:06:42;6.80;;;4.72;;
43700;SDS011;58809;47.984;7.964;2023-02-01T01:09:44;7.13;;;5.00;;
43700;SDS011;58809;47.984;7.964;2023-02-01T01:12:45;6.32;;;5.00;;
43700;SDS011;58809;47.984;7.964;2023-02-01T01:15:46;7.47;;;4.75;;
43700;SDS011;58809;47.984;7.964;2023-02-01T01:18:48;7.63;;;4.93;;
43700;SDS011;58809;47.984;7.964;2023-02-01T01:21:50;6.97;;;5.07;;
43700;SDS011;58809;47.984;7.964;2023-02-01T01:24:52;6.68;;;4.88;;
43700;SDS011;58809;47.984;7.964;2023-02-01T01:27:53;4.75;;;3.92;;
43700;SDS011;58809;47.984;7.964;2023-02-01T01:30:55;6.28;;;4.88;;
43700;SDS011;58809;47.984;7.964;2023-02-01T01:33:57;5.13;;;4.00;;
43700;SDS011;58809;47.984;7.964;2023-02-01T01:37:00;6.50;;;4.90;;
43700;SDS011;58809;47.984;7.964;2023-02-01T01:40:03;7.22;;;4.43;;
43700;SDS011;58809;47.984;7.964;2023-02-01T01:43:11;8.82;;;3.85;;
43700;SDS011;58809;47.984;7.964;2023-02-01T01:46:16;7.53;;;4.80;;
43700;SDS011;58809;47.984;7.964;2023-02-01T01:49:22;7.72;;;4.65;;
43700;SDS011;58809;47.984;7.964;2023-02-01T01:52:27;7.82;;;4.35;;
43700;SDS011;58809;47.984;7.964;2023-02-01T01:55:30;5.75;;;4.40;;
43700;SDS011;58809;47.984;7.964;2023-02-01T01:58:34;5.88;;;4.30;;
43700;SDS011;58809;47.984;7.964;2023-02-01T02:01:36;5.82;;;4.18;;
43700;SDS011;58809;47.984;7.964;2023-02-01T02:04:38;5.28;;;4.40;;
43700;SDS011;58809;47.984;7.964;2023-02-01T02:07:40;8.50;;;4.95;;
43700;SDS011;58809;47.984;7.964;2023-02-01T02:10:50;6.25;;;4.72;;
43700;SDS011;58809;47.984;7.964;2023-02-01T02:14:01;7.90;;;4.35;;
43700;SDS011;58809;47.984;7.964;2023-02-01T02:37:04;7.50;;;4.53;;
43700;SDS011;58809;47.984;7.964;2023-02-01T02:40:22;6.65;;;4.47;;
43700;SDS011;58809;47.984;7.964;2023-02-01T02:43:37;5.85;;;4.43;;
43700;SDS011;58809;47.984;7.964;2023-02-01T02:47:12;7.18;;;5.18;;
43700;SDS011;58809;47.984;7.964;2023-02-01T02:50:36;6.68;;;4.40;;
43700;SDS011;58809;47.984;7.964;2023-02-01T02:54:09;5.47;;;4.38;;
43700;SDS011;58809;47.984;7.964;2023-02-01T02:57:37;6.28;;;4.00;;
43700;SDS011;58809;47.984;7.964;2023-02-01T03:00:59;5.88;;;4.32;;
43700;SDS011;58809;47.984;7.964;2023-02-01T03:04:21;5.55;;;4.07;;
43700;SDS011;58809;47.984;7.964;2023-02-01T03:10:47;5.82;;;4.13;;
43700;SDS011;58809;47.984;7.964;2023-02-01T03:13:51;5.22;;;3.90;;
43700;SDS011;58809;47.984;7.964;2023-02-01T03:16:56;5.38;;;4.00;;
43700;SDS011;58809;47.984;7.964;2023-02-01T03:20:03;7.15;;;4.25;;
43700;SDS011;58809;47.984;7.964;2023-02-01T03:23:07;4.97;;;3.70;;
43700;SDS011;58809;47.984;7.964;2023-02-01T03:26:11;5.72;;;3.85;;
43700;SDS011;58809;47.984;7.964;2023-02-01T03:29:21;6.40;;;4.47;;
43700;SDS011;58809;47.984;7.964;2023-02-01T03:32:28;5.35;;;3.90;;
43700;SDS011;58809;47.984;7.964;2023-02-01T03:35:36;5.75;;;3.65;;
43700;SDS011;58809;47.984;7.964;2023-02-01T03:38:58;9.20;;;4.65;;
43700;SDS011;58809;47.984;7.964;2023-02-01T03:42:13;7.20;;;4.25;;
43700;SDS011;58809;47.984;7.964;2023-02-01T03:45:34;7.05;;;4.85;;
43700;SDS011;58809;47.984;7.964;2023-02-01T03:48:42;7.38;;;4.63;;
43700;SDS011;58809;47.984;7.964;2023-02-01T03:51:45;8.23;;;4.68;;
43700;SDS011;58809;47.984;7.964;2023-02-01T03:54:49;7.10;;;4.57;;
43700;SDS011;58809;47.984;7.964;2023-02-01T03:57:53;7.22;;;4.38;;
43700;SDS011;58809;47.984;7.964;2023-02-01T04:01:00;8.15;;;4.43;;
43700;SDS011;58809;47.984;7.964;2023-02-01T04:04:05;7.28;;;5.40;;
43700;SDS011;58809;47.984;7.964;2023-02-01T04:07:07;7.55;;;4.57;;
43700;SDS011;58809;47.984;7.964;2023-02-01T04:10:09;8.90;;;4.70;;
43700;SDS011;58809;47.984;7.964;2023-02-01T04:13:11;6.65;;;4.93;;
43700;SDS011;58809;47.984;7.964;2023-02-01T04:16:13;6.68;;;5.05;;
43700;SDS011;58809;47.984;7.964;2023-02-01T04:19:15;8.32;;;4.80;;
43700;SDS011;58809;47.984;7.964;2023-02-01T04:22:16;7.53;;;4.90;;
43700;SDS011;58809;47.984;7.964;2023-02-01T04:25:18;6.68;;;5.50;;
43700;SDS011;58809;47.984;7.964;2023-02-01T04:28:20;6.72;;;5.15;;
43700;SDS011;58809;47.984;7.964;2023-02-01T04:31:21;6.93;;;4.78;;
43700;SDS011;58809;47.984;7.964;2023-02-01T04:34:26;6.22;;;4.72;;
43700;SDS011;58809;47.984;7.964;2023-02-01T04:37:28;7.45;;;4.70;;
43700;SDS011;58809;47.984;7.964;2023-02-01T04:40:30;5.85;;;4.32;;
43700;SDS011;58809;47.984;7.964;2023-02-01T04:43:31;9.82;;;5.20;;
43700;SDS011;58809;47.984;7.964;2023-02-01T04:46:33;9.45;;;4.30;;
43700;SDS011;58809;47.984;7.964;2023-02-01T04:49:35;6.60;;;4.45;;
43700;SDS011;58809;47.984;7.964;2023-02-01T04:52:36;7.43;;;4.63;;
43700;SDS011;58809;47.984;7.964;2023-02-01T04:55:38;8.13;;;4.55;;
43700;SDS011;58809;47.984;7.964;2023-02-01T04:58:40;5.50;;;4.00;;
43700;SDS011;58809;47.984;7.964;2023-02-01T05:01:41;6.75;;;4.22;;
43700;SDS011;58809;47.984;7.964;2023-02-01T05:04:43;6.20;;;4.43;;
43700;SDS011;58809;47.984;7.964;2023-02-01T05:07:45;7.00;;;4.28;;
43700;SDS011;58809;47.984;7.964;2023-02-01T05:10:48;5.43;;;3.97;;
43700;SDS011;58809;47.984;7.964;2023-02-01T05:13:49;7.15;;;4.35;;
43700;SDS011;58809;47.984;7.964;2023-02-01T05:16:51;6.43;;;3.67;;
43700;SDS011;58809;47.984;7.964;2023-02-01T05:19:53;5.35;;;3.50;;
43700;SDS011;58809;47.984;7.964;2023-02-01T05:22:54;5.38;;;3.83;;
43700;SDS011;58809;47.984;7.964;2023-02-01T05:25:59;6.50;;;4.13;;
43700;SDS011;58809;47.984;7.964;2023-02-01T05:29:02;5.40;;;3.33;;
43700;SDS011;58809;47.984;7.964;2023-02-01T05:32:04;5.53;;;4.20;;
43700;SDS011;58809;47.984;7.964;2023-02-01T05:35:22;5.20;;;3.78;;
43700;SDS011;58809;47.984;7.964;2023-02-01T05:38:24;5.05;;;3.15;;
43700;SDS011;58809;47.984;7.964;2023-02-01T05:41:25;4.30;;;3.50;;
43700;SDS011;58809;47.984;7.964;2023-02-01T05:44:27;5.07;;;3.20;;
43700;SDS011;58809;47.984;7.964;2023-02-01T05:47:28;7.70;;;3.85;;
43700;SDS011;58809;47.984;7.964;2023-02-01T05:50:30;5.78;;;3.90;;
43700;SDS011;58809;47.984;7.964;2023-02-01T05:53:31;4.65;;;3.28;;
43700;SDS011;58809;47.984;7.964;2023-02-01T05:56:33;4.18;;;3.38;;
43700;SDS011;58809;47.984;7.964;2023-02-01T05:59:34;5.90;;;3.30;;
43700;SDS011;58809;47.984;7.964;2023-02-01T06:02:38;6.20;;;3.73;;
43700;SDS011;58809;47.984;7.964;2023-02-01T06:05:39;4.78;;;3.42;;
43700;SDS011;58809;47.984;7.964;2023-02-01T06:08:41;6.32;;;4.15;;
43700;SDS011;58809;47.984;7.964;2023-02-01T06:11:42;5.25;;;3.88;;
43700;SDS011;58809;47.984;7.964;2023-02-01T06:14:44;4.45;;;2.72;;
43700;SDS011;58809;47.984;7.964;2023-02-01T06:17:46;5.38;;;3.30;;
43700;SDS011;58809;47.984;7.964;2023-02-01T06:20:57;5.47;;;3.28;;
43700;SDS011;58809;47.984;7.964;2023-02-01T06:24:03;4.72;;;3.47;;
43700;SDS011;58809;47.984;7.964;2023-02-01T06:27:05;4.50;;;3.10;;
43700;SDS011;58809;47.984;7.964;2023-02-01T06:30:07;4.65;;;3.47;;
43700;SDS011;58809;47.984;7.964;2023-02-01T06:33:09;4.75;;;2.78;;
43700;SDS011;58809;47.984;7.964;2023-02-01T06:36:11;4.00;;;2.67;;
43700;SDS011;58809;47.984;7.964;2023-02-01T06:39:17;4.20;;;3.05;;
43700;SDS011;58809;47.984;7.964;2023-02-01T06:42:18;3.60;;;2.53;;
43700;SDS011;58809;47.984;7.964;2023-02-01T06:45:20;4.20;;;2.35;;
43700;SDS011;58809;47.984;7.964;2023-02-01T06:48:21;2.78;;;2.03;;
43700;SDS011;58809;47.984;7.964;2023-02-01T06:51:24;3.38;;;2.45;;
43700;SDS011;58809;47.984;7.964;2023-02-01T06:57:29;3.50;;;2.60;;
43700;SDS011;58809;47.984;7.964;2023-02-01T07:00:32;3.03;;;2.17;;
43700;SDS011;58809;47.984;7.964;2023-02-01T07:03:33;5.68;;;2.17;;
43700;SDS011;58809;47.984;7.964;2023-02-01T07:06:35;4.55;;;2.47;;
43700;SDS011;58809;47.984;7.964;2023-02-01T07:09:36;2.35;;;1.90;;
43700;SDS011;58809;47.984;7.964;2023-02-01T07:12:38;3.65;;;2.15;;
43700;SDS011;58809;47.984;7.964;2023-02-01T07:15:40;3.17;;;1.80;;
43700;SDS011;58809;47.984;7.964;2023-02-01T07:18:41;3.10;;;1.73;;
43700;SDS011;58809;47.984;7.964;2023-02-01T07:21:43;2.38;;;1.58;;
43700;SDS011;58809;47.984;7.964;2023-02-01T07:24:45;2.60;;;2.05;;
43700;SDS011;58809;47.984;7.964;2023-02-01T07:27:46;3.03;;;2.25;;
43700;SDS011;58809;47.984;7.964;2023-02-01T07:30:48;2.33;;;2.00;;
43700;SDS011;58809;47.984;7.964;2023-02-01T07:33:52;1.88;;;1.67;;
43700;SDS011;58809;47.984;7.964;2023-02-01T07:36:53;3.53;;;1.65;;
43700;SDS011;58809;47.984;7.964;2023-02-01T07:39:55;2.00;;;1.80;;
43700;SDS011;58809;47.984;7.964;2023-02-01T07:42:56;2.72;;;1.88;;
43700;SDS011;58809;47.984;7.964;2023-02-01T07:45:58;3.17;;;2.20;;
43700;SDS011;58809;47.984;7.964;2023-02-01T07:49:00;3.33;;;1.75;;
43700;SDS011;58809;47.984;7.964;2023-02-01T07:52:02;2.53;;;2.05;;
43700;SDS011;58809;47.984;7.964;2023-02-01T07:55:03;2.72;;;2.28;;
43700;SDS011;58809;47.984;7.964;2023-02-01T07:58:05;4.63;;;2.30;;
43700;SDS011;58809;47.984;7.964;2023-02-01T08:01:13;3.40;;;2.70;;
43700;SDS011;58809;47.984;7.964;2023-02-01T08:04:25;3.30;;;2.67;;
43700;SDS011;58809;47.984;7.964;2023-02-01T08:07:26;3.83;;;2.33;;
43700;SDS011;58809;47.984;7.964;2023-02-01T08:10:28;3.72;;;2.95;;
43700;SDS011;58809;47.984;7.964;2023-02-01T08:13:30;4.22;;;2.28;;
43700;SDS011;58809;47.984;7.964;2023-02-01T08:16:32;3.08;;;2.83;;
43700;SDS011;58809;47.984;7.964;2023-02-01T08:19:36;5.00;;;2.75;;
43700;SDS011;58809;47.984;7.964;2023-02-01T08:22:37;6.07;;;3.15;;
43700;SDS011;58809;47.984;7.964;2023-02-01T08:25:39;4.43;;;2.50;;
43700;SDS011;58809;47.984;7.964;2023-02-01T08:28:45;4.72;;;3.22;;
43700;SDS011;58809;47.984;7.964;2023-02-01T08:31:49;3.78;;;2.65;;
43700;SDS011;58809;47.984;7.964;2023-02-01T08:34:52;4.60;;;3.20;;
43700;SDS011;58809;47.984;7.964;2023-02-01T08:37:54;4.82;;;2.50;;
43700;SDS011;58809;47.984;7.964;2023-02-01T08:40:56;3.95;;;3.08;;
43700;SDS011;58809;47.984;7.964;2023-02-01T08:43:57;5.40;;;3.13;;
43700;SDS011;58809;47.984;7.964;2023-02-01T08:46:59;7.90;;;3.75;;
43700;SDS011;58809;47.984;7.964;2023-02-01T08:50:00;4.72;;;3.33;;
43700;SDS011;58809;47.984;7.964;2023-02-01T08:53:02;5.70;;;3.65;;
43700;SDS011;58809;47.984;7.964;2023-02-01T08:56:04;4.28;;;3.13;;
43700;SDS011;58809;47.984;7.964;2023-02-01T08:59:06;5.05;;;3.00;;
43700;SDS011;58809;47.984;7.964;2023-02-01T09:02:08;7.05;;;3.70;;
43700;SDS011;58809;47.984;7.964;2023-02-01T09:05:14;4.68;;;3.00;;
43700;SDS011;58809;47.984;7.964;2023-02-01T09:08:17;6.87;;;3.60;;
43700;SDS011;58809;47.984;7.964;2023-02-01T09:11:21;3.15;;;2.53;;
43700;SDS011;58809;47.984;7.964;2023-02-01T09:14:22;4.38;;;2.67;;
43700;SDS011;58809;47.984;7.964;2023-02-01T09:17:25;4.20;;;3.08;;
43700;SDS011;58809;47.984;7.964;2023-02-01T09:20:32;4.55;;;2.95;;
43700;SDS011;58809;47.984;7.964;2023-02-01T09:23:34;7.38;;;3.38;;
43700;SDS011;58809;47.984;7.964;2023-02-01T09:26:36;2.83;;;2.20;;
43700;SDS011;58809;47.984;7.964;2023-02-01T09:29:38;5.75;;;2.97;;
43700;SDS011;58809;47.984;7.964;2023-02-01T09:32:39;2.53;;;2.30;;
43700;SDS011;58809;47.984;7.964;2023-02-01T09:35:41;4.20;;;2.65;;
43700;SDS011;58809;47.984;7.964;2023-02-01T09:38:42;5.13;;;2.80;;
43700;SDS011;58809;47.984;7.964;2023-02-01T09:46:32;4.75;;;3.28;;
43700;SDS011;58809;47.984;7.964;2023-02-01T09:49:22;6.38;;;4.18;;
43700;SDS011;58809;47.984;7.964;2023-02-01T09:53:18;6.78;;;4.35;;
43700;SDS011;58809;47.984;7.964;2023-02-01T09:56:05;5.60;;;3.20;;
43700;SDS011;58809;47.984;7.964;2023-02-01T10:02:26;3.88;;;2.83;;
43700;SDS011;58809;47.984;7.964;2023-02-01T10:05:38;5.10;;;3.40;;
43700;SDS011;58809;47.984;7.964;2023-02-01T10:22:23;7.22;;;3.50;;
43700;SDS011;58809;47.984;7.964;2023-02-01T10:25:54;6.80;;;3.83;;
43700;SDS011;58809;47.984;7.964;2023-02-01T10:29:13;7.28;;;4.32;;
43700;SDS011;58809;47.984;7.964;2023-02-01T10:32:20;6.22;;;4.15;;
43700;SDS011;58809;47.984;7.964;2023-02-01T10:35:27;5.10;;;4.20;;
43700;SDS011;58809;47.984;7.964;2023-02-01T10:38:32;6.00;;;4.47;;
43700;SDS011;58809;47.984;7.964;2023-02-01T10:41:35;8.65;;;5.00;;
43700;SDS011;58809;47.984;7.964;2023-02-01T10:44:42;8.98;;;5.20;;
43700;SDS011;58809;47.984;7.964;2023-02-01T10:47:47;6.68;;;5.55;;
43700;SDS011;58809;47.984;7.964;2023-02-01T10:50:53;9.45;;;4.68;;
43700;SDS011;58809;47.984;7.964;2023-02-01T10:54:15;9.90;;;4.60;;
43700;SDS011;58809;47.984;7.964;2023-02-01T10:57:22;9.43;;;5.03;;
43700;SDS011;58809;47.984;7.964;2023-02-01T11:00:27;8.35;;;4.75;;
43700;SDS011;58809;47.984;7.964;2023-02-01T11:03:44;10.63;;;5.40;;
43700;SDS011;58809;47.984;7.964;2023-02-01T11:06:51;10.90;;;5.53;;
43700;SDS011;58809;47.984;7.964;2023-02-01T11:09:55;9.52;;;4.88;;
43700;SDS011;58809;47.984;7.964;2023-02-01T11:12:57;8.48;;;4.45;;
43700;SDS011;58809;47.984;7.964;2023-02-01T11:16:00;8.20;;;5.30;;
43700;SDS011;58809;47.984;7.964;2023-02-01T11:19:04;9.90;;;4.85;;
43700;SDS011;58809;47.984;7.964;2023-02-01T11:22:06;7.00;;;4.85;;
43700;SDS011;58809;47.984;7.964;2023-02-01T11:25:09;8.88;;;5.10;;
43700;SDS011;58809;47.984;7.964;2023-02-01T11:28:11;8.30;;;4.50;;
43700;SDS011;58809;47.984;7.964;2023-02-01T11:31:13;9.52;;;4.30;;
43700;SDS011;58809;47.984;7.964;2023-02-01T11:34:20;9.82;;;4.88;;
43700;SDS011;58809;47.984;7.964;2023-02-01T11:37:27;6.43;;;4.88;;
43700;SDS011;58809;47.984;7.964;2023-02-01T11:40:35;14.15;;;5.07;;
43700;SDS011;58809;47.984;7.964;2023-02-01T11:43:50;8.05;;;5.05;;
43700;SDS011;58809;47.984;7.964;2023-02-01T11:46:53;12.93;;;5.97;;
43700;SDS011;58809;47.984;7.964;2023-02-01T11:49:58;8.85;;;5.00;;
43700;SDS011;58809;47.984;7.964;2023-02-01T12:10:06;13.70;;;5.07;;
43700;SDS011;58809;47.984;7.964;2023-02-01T12:47:46;15.10;;;5.13;;
43700;SDS011;58809;47.984;7.964;2023-02-01T12:51:06;10.10;;;5.30;;
43700;SDS011;58809;47.984;7.964;2023-02-01T12:54:26;15.10;;;5.82;;
43700;SDS011;58809;47.984;7.964;2023-02-01T12:57:38;9.50;;;5.00;;
43700;SDS011;58809;47.984;7.964;2023-02-01T13:00:44;12.85;;;5.80;;
43700;SDS011;58809;47.984;7.964;2023-02-01T13:03:55;13.23;;;5.72;;
43700;SDS011;58809;47.984;7.964;2023-02-01T13:07:10;13.90;;;6.15;;
43700;SDS011;58809;47.984;7.964;2023-02-01T13:10:21;15.35;;;5.93;;
43700;SDS011;58809;47.984;7.964;2023-02-01T13:13:42;13.07;;;6.22;;
43700;SDS011;58809;47.984;7.964;2023-02-01T13:16:51;14.15;;;5.22;;
43700;SDS011;58809;47.984;7.964;2023-02-01T13:20:16;14.85;;;5.63;;
43700;SDS011;58809;47.984;7.964;2023-02-01T13:23:22;9.07;;;4.53;;
43700;SDS011;58809;47.984;7.964;2023-02-01T13:26:28;11.57;;;5.65;;
43700;SDS011;58809;47.984;7.964;2023-02-01T13:29:30;9.27;;;5.03;;
43700;SDS011;58809;47.984;7.964;2023-02-01T13:32:42;19.70;;;6.88;;
43700;SDS011;58809;47.984;7.964;2023-02-01T13:43:22;15.40;;;4.80;;
43700;SDS011;58809;47.984;7.964;2023-02-01T13:46:27;14.30;;;5.65;;
43700;SDS011;58809;47.984;7.964;2023-02-01T13:49:31;11.90;;;5.55;;
43700;SDS011;58809;47.984;7.964;2023-02-01T13:52:42;17.65;;;5.70;;
43700;SDS011;58809;47.984;7.964;2023-02-01T13:59:37;15.38;;;5.50;;
43700;SDS011;58809;47.984;7.964;2023-02-01T14:09:05;9.95;;;4.85;;
43700;SDS011;58809;47.984;7.964;2023-02-01T14:19:03;14.63;;;5.93;;
43700;SDS011;58809;47.984;7.964;2023-02-01T14:25:31;16.58;;;5.78;;
43700;SDS011;58809;47.984;7.964;2023-02-01T14:28:35;13.93;;;5.38;;
43700;SDS011;58809;47.984;7.964;2023-02-01T14:35:07;15.00;;;5.40;;
43700;SDS011;58809;47.984;7.964;2023-02-01T14:38:18;14.98;;;5.68;;
43700;SDS011;58809;47.984;7.964;2023-02-01T14:41:26;12.63;;;5.37;;
43700;SDS011;58809;47.984;7.964;2023-02-01T14:44:33;9.55;;;5.15;;
43700;SDS011;58809;47.984;7.964;2023-02-01T14:47:37;15.30;;;5.85;;
43700;SDS011;58809;47.984;7.964;2023-02-01T14:50:42;10.35;;;5.20;;
43700;SDS011;58809;47.984;7.964;2023-02-01T14:53:47;10.73;;;5.20;;
43700;SDS011;58809;47.984;7.964;2023-02-01T14:56:50;15.68;;;5.55;;
43700;SDS011;58809;47.984;7.964;2023-02-01T14:59:59;14.75;;;5.95;;
43700;SDS011;58809;47.984;7.964;2023-02-01T15:03:20;12.27;;;5.43;;
43700;SDS011;58809;47.984;7.964;2023-02-01T15:09:43;16.13;;;6.22;;
43700;SDS011;58809;47.984;7.964;2023-02-01T15:12:47;13.48;;;4.93;;
43700;SDS011;58809;47.984;7.964;2023-02-01T15:16:02;17.05;;;5.47;;
43700;SDS011;58809;47.984;7.964;2023-02-01T15:19:06;12.18;;;6.00;;
43700;SDS011;58809;47.984;7.964;2023-02-01T15:22:13;16.10;;;5.90;;
43700;SDS011;58809;47.984;7.964;2023-02-01T15:25:21;18.23;;;5.70;;
43700;SDS011;58809;47.984;7.964;2023-02-01T15:28:26;9.63;;;5.93;;
43700;SDS011;58809;47.984;7.964;2023-02-01T15:31:31;11.95;;;5.85;;
43700;SDS011;58809;47.984;7.964;2023-02-01T15:34:48;16.08;;;6.07;;
43700;SDS011;58809;47.984;7.964;2023-02-01T15:37:51;13.63;;;5.25;;
43700;SDS011;58809;47.984;7.964;2023-02-01T15:40:57;16.15;;;5.70;;
43700;SDS011;58809;47.984;7.964;2023-02-01T15:44:19;22.60;;;7.05;;
43700;SDS011;58809;47.984;7.964;2023-02-01T15:47:29;9.77;;;5.00;;
43700;SDS011;58809;47.984;7.964;2023-02-01T15:50:32;18.73;;;5.60;;
43700;SDS011;58809;47.984;7.964;2023-02-01T15:53:34;16.42;;;5.97;;
43700;SDS011;58809;47.984;7.964;2023-02-01T15:56:37;17.65;;;5.57;;
43700;SDS011;58809;47.984;7.964;2023-02-01T15:59:43;11.52;;;5.05;;
43700;SDS011;58809;47.984;7.964;2023-02-01T16:02:53;15.05;;;4.80;;
43700;SDS011;58809;47.984;7.964;2023-02-01T16:05:57;13.52;;;4.93;;
43700;SDS011;58809;47.984;7.964;2023-02-01T16:09:02;12.82;;;4.63;;
43700;SDS011;58809;47.984;7.964;2023-02-01T16:15:36;17.23;;;5.90;;
43700;SDS011;58809;47.984;7.964;2023-02-01T16:18:38;15.48;;;6.10;;
43700;SDS011;58809;47.984;7.964;2023-02-01T16:21:39;16.48;;;5.63;;
43700;SDS011;58809;47.984;7.964;2023-02-01T16:24:41;13.88;;;4.90;;
43700;SDS011;58809;47.984;7.964;2023-02-01T16:27:42;16.70;;;6.28;;
43700;SDS011;58809;47.984;7.964;2023-02-01T16:30:44;14.38;;;6.65;;
43700;SDS011;58809;47.984;7.964;2023-02-01T16:33:46;12.70;;;5.05;;
43700;SDS011;58809;47.984;7.964;2023-02-01T16:36:50;13.18;;;5.15;;
43700;SDS011;58809;47.984;7.964;2023-02-01T16:39:53;13.68;;;5.93;;
43700;SDS011;58809;47.984;7.964;2023-02-01T16:42:55;15.32;;;6.10;;
43700;SDS011;58809;47.984;7.964;2023-02-01T16:45:59;10.05;;;5.10;;
43700;SDS011;58809;47.984;7.964;2023-02-01T16:49:04;17.27;;;6.00;;
43700;SDS011;58809;47.984;7.964;2023-02-01T16:52:08;18.33;;;6.35;;
43700;SDS011;58809;47.984;7.964;2023-02-01T16:55:16;12.50;;;5.38;;
43700;SDS011;58809;47.984;7.964;2023-02-01T16:58:20;10.77;;;4.80;;
43700;SDS011;58809;47.984;7.964;2023-02-01T17:01:22;13.55;;;5.45;;
43700;SDS011;58809;47.984;7.964;2023-02-01T17:04:24;14.93;;;5.28;;
43700;SDS011;58809;47.984;7.964;2023-02-01T17:07:26;12.07;;;5.47;;
43700;SDS011;58809;47.984;7.964;2023-02-01T17:10:28;15.50;;;5.60;;
43700;SDS011;58809;47.984;7.964;2023-02-01T17:13:34;15.48;;;6.07;;
43700;SDS011;58809;47.984;7.964;2023-02-01T17:16:37;10.75;;;4.53;;
43700;SDS011;58809;47.984;7.964;2023-02-01T17:19:38;8.63;;;5.35;;
43700;SDS011;58809;47.984;7.964;2023-02-01T17:22:40;12.63;;;5.05;;
43700;SDS011;58809;47.984;7.964;2023-02-01T17:25:41;10.38;;;4.70;;
43700;SDS011;58809;47.984;7.964;2023-02-01T17:28:43;10.90;;;4.20;;
43700;SDS011;58809;47.984;7.964;2023-02-01T17:31:45;12.75;;;4.65;;
43700;SDS011;58809;47.984;7.964;2023-02-01T17:34:50;12.10;;;4.13;;
43700;SDS011;58809;47.984;7.964;2023-02-01T17:37:52;10.63;;;4.25;;
43700;SDS011;58809;47.984;7.964;2023-02-01T17:40:53;11.25;;;4.88;;
43700;SDS011;58809;47.984;7.964;2023-02-01T17:43:55;15.38;;;4.70;;
43700;SDS011;58809;47.984;7.964;2023-02-01T17:46:58;10.23;;;4.28;;
43700;SDS011;58809;47.984;7.964;2023-02-01T17:49:59;12.57;;;5.30;;
43700;SDS011;58809;47.984;7.964;2023-02-01T17:53:01;13.02;;;4.55;;
43700;SDS011;58809;47.984;7.964;2023-02-01T17:56:08;17.65;;;6.72;;
43700;SDS011;58809;47.984;7.964;2023-02-01T17:59:14;16.98;;;8.70;;
43700;SDS011;58809;47.984;7.964;2023-02-01T18:02:21;13.27;;;5.93;;
43700;SDS011;58809;47.984;7.964;2023-02-01T18:05:39;11.35;;;5.15;;
43700;SDS011;58809;47.984;7.964;2023-02-01T18:08:43;6.82;;;3.85;;
43700;SDS011;58809;47.984;7.964;2023-02-01T18:11:46;11.98;;;4.65;;
43700;SDS011;58809;47.984;7.964;2023-02-01T18:14:49;12.38;;;4.55;;
43700;SDS011;58809;47.984;7.964;2023-02-01T18:17:51;11.90;;;4.60;;
43700;SDS011;58809;47.984;7.964;2023-02-01T18:20:52;13.93;;;5.50;;
43700;SDS011;58809;47.984;7.964;2023-02-01T18:23:54;10.65;;;5.22;;
43700;SDS011;58809;47.984;7.964;2023-02-01T18:26:55;11.23;;;5.07;;
43700;SDS011;58809;47.984;7.964;2023-02-01T18:29:57;13.27;;;4.10;;
43700;SDS011;58809;47.984;7.964;2023-02-01T18:32:58;10.38;;;5.25;;
43700;SDS011;58809;47.984;7.964;2023-02-01T18:36:00;11.30;;;4.20;;
43700;SDS011;58809;47.984;7.964;2023-02-01T18:39:02;18.17;;;5.53;;
43700;SDS011;58809;47.984;7.964;2023-02-01T18:42:03;17.42;;;5.53;;
43700;SDS011;58809;47.984;7.964;2023-02-01T18:45:05;13.18;;;5.40;;
43700;SDS011;58809;47.984;7.964;2023-02-01T18:48:16;9.30;;;4.88;;
43700;SDS011;58809;47.984;7.964;2023-02-01T18:51:19;15.23;;;5.78;;
43700;SDS011;58809;47.984;7.964;2023-02-01T18:54:21;17.27;;;4.40;;
43700;SDS011;58809;47.984;7.964;2023-02-01T18:57:24;18.43;;;7.80;;
43700;SDS011;58809;47.984;7.964;2023-02-01T19:00:26;9.40;;;4.40;;
43700;SDS011;58809;47.984;7.964;2023-02-01T19:03:29;14.95;;;4.65;;
43700;SDS011;58809;47.984;7.964;2023-02-01T19:06:31;13.15;;;4.78;;
43700;SDS011;58809;47.984;7.964;2023-02-01T19:09:33;17.67;;;4.38;;
43700;SDS011;58809;47.984;7.964;2023-02-01T19:12:36;12.90;;;5.03;;
43700;SDS011;58809;47.984;7.964;2023-02-01T19:15:39;12.15;;;4.60;;
43700;SDS011;58809;47.984;7.964;2023-02-01T19:18:41;10.60;;;4.57;;
43700;SDS011;58809;47.984;7.964;2023-02-01T19:21:43;9.77;;;4.43;;
43700;SDS011;58809;47.984;7.964;2023-02-01T19:24:44;9.63;;;4.55;;
43700;SDS011;58809;47.984;7.964;2023-02-01T19:27:46;11.18;;;4.70;;
43700;SDS011;58809;47.984;7.964;2023-02-01T19:30:49;14.20;;;4.95;;
43700;SDS011;58809;47.984;7.964;2023-02-01T19:33:50;15.18;;;5.32;;
43700;SDS011;58809;47.984;7.964;2023-02-01T19:36:52;11.82;;;5.10;;
43700;SDS011;58809;47.984;7.964;2023-02-01T19:39:55;13.57;;;5.20;;
43700;SDS011;58809;47.984;7.964;2023-02-01T19:43:01;12.70;;;5.05;;
43700;SDS011;58809;47.984;7.964;2023-02-01T19:46:03;12.75;;;5.70;;
43700;SDS011;58809;47.984;7.964;2023-02-01T19:49:05;9.75;;;4.63;;
43700;SDS011;58809;47.984;7.964;2023-02-01T19:52:12;10.10;;;5.32;;
43700;SDS011;58809;47.984;7.964;2023-02-01T19:55:13;16.35;;;5.43;;
43700;SDS011;58809;47.984;7.964;2023-02-01T19:58:15;14.13;;;5.50;;
43700;SDS011;58809;47.984;7.964;2023-02-01T20:01:16;11.73;;;4.80;;
43700;SDS011;58809;47.984;7.964;2023-02-01T20:04:19;12.10;;;5.03;;
43700;SDS011;58809;47.984;7.964;2023-02-01T20:07:22;12.48;;;4.63;;
43700;SDS011;58809;47.984;7.964;2023-02-01T20:10:24;11.57;;;4.95;;
43700;SDS011;58809;47.984;7.964;2023-02-01T20:13:25;14.50;;;5.50;;
43700;SDS011;58809;47.984;7.964;2023-02-01T20:16:27;11.85;;;4.82;;
43700;SDS011;58809;47.984;7.964;2023-02-01T20:19:28;12.98;;;4.53;;
43700;SDS011;58809;47.984;7.964;2023-02-01T20:22:31;14.63;;;4.20;;
43700;SDS011;58809;47.984;7.964;2023-02-01T20:25:34;14.15;;;5.05;;
43700;SDS011;58809;47.984;7.964;2023-02-01T20:28:36;8.82;;;4.63;;
43700;SDS011;58809;47.984;7.964;2023-02-01T20:31:38;16.30;;;5.72;;
43700;SDS011;58809;47.984;7.964;2023-02-01T20:34:41;13.10;;;5.25;;
43700;SDS011;58809;47.984;7.964;2023-02-01T20:37:42;12.80;;;4.32;;
43700;SDS011;58809;47.984;7.964;2023-02-01T20:40:44;15.38;;;6.32;;
43700;SDS011;58809;47.984;7.964;2023-02-01T20:43:45;14.40;;;4.38;;
43700;SDS011;58809;47.984;7.964;2023-02-01T20:46:47;14.98;;;4.88;;